Time;durP1;ratioP1;P1;durP2;ratioP2;P2;SDS_P1;SDS_P2;PMS_P1;PMS_P2;Temp;Humidity;BMP_temperature;BMP_pressure;BME280_temperature;BME280_humidity;BME280_pressure;Samples;Min_cycle;Max_cycle;Signal;HPM_P1;HPM_P2
2024/01/29 00:02:29;;;;;;;20.17;11.80;;;3.20;67.80;;;5.18;50.10;98822.94;5071879;28;20036;-66
2024/01/29 00:04:56;;;;;;;17.30;10.37;;;3.20;67.90;;;5.16;50.73;98825.69;5070713;28;20052;-66
2024/01/29 00:07:24;;;;;;;16.63;9.50;;;3.10;68.60;;;5.15;50.40;98826.59;5063310;28;20040;-66
2024/01/29 00:09:52;;;;;;;13.77;8.60;;;3.10;68.80;;;5.13;50.41;98828.50;5071117;28;20052;-66
2024/01/29 00:12:19;;;;;;;14.07;8.00;;;3.10;69.10;;;5.11;51.33;98827.75;5070869;28;20499;-66
2024/01/29 00:14:47;;;;;;;10.87;7.87;;;3.10;68.60;;;5.10;50.38;98839.28;5069424;28;20040;-66
2024/01/29 00:17:15;;;;;;;12.97;7.03;;;3.10;68.60;;;5.06;50.85;98833.34;5071160;28;20040;-66
2024/01/29 00:19:42;;;;;;;11.07;6.63;;;3.10;69.10;;;5.04;50.67;98829.94;5070956;28;20040;-66
2024/01/29 00:22:10;;;;;;;9.27;6.27;;;3.00;69.10;;;5.01;51.41;98824.84;5069507;28;20075;-66
2024/01/29 00:24:38;;;;;;;8.67;5.80;;;3.00;69.60;;;4.99;50.88;98825.91;5052138;28;20052;-66
2024/01/29 00:27:05;;;;;;;9.87;5.97;;;3.00;69.90;;;4.97;51.57;98833.06;5069518;28;20511;-66
2024/01/29 00:29:33;;;;;;;9.57;5.53;;;2.90;70.00;;;4.93;51.20;98827.13;5070574;28;20045;-66
2024/01/29 00:32:01;;;;;;;8.57;6.33;;;2.90;69.90;;;4.92;51.05;98825.44;5070606;28;20051;-66
2024/01/29 00:34:28;;;;;;;7.30;5.60;;;2.90;70.60;;;4.90;51.19;98830.84;5069140;28;20040;-66
2024/01/29 00:36:56;;;;;;;7.90;5.63;;;2.90;69.60;;;4.87;50.98;98828.38;5069635;28;20051;-66
2024/01/29 00:39:24;;;;;;;8.33;5.77;;;2.90;69.60;;;4.85;51.08;98829.41;5070657;28;20040;-66
2024/01/29 00:41:52;;;;;;;11.97;6.13;;;2.80;70.00;;;4.84;51.18;98831.19;5069561;28;20052;-66
2024/01/29 00:44:19;;;;;;;8.97;6.00;;;2.80;70.10;;;4.81;51.49;98822.59;5069941;28;20056;-66
2024/01/29 00:46:47;;;;;;;9.57;6.43;;;2.80;70.40;;;4.80;51.15;98823.56;5069411;28;20056;-66
2024/01/29 00:49:15;;;;;;;9.10;6.03;;;2.80;70.00;;;4.79;51.74;98817.47;5069902;28;20055;-66
2024/01/29 00:51:43;;;;;;;9.67;5.70;;;2.80;70.40;;;4.79;51.15;98827.13;5070335;28;20336;-66
2024/01/29 00:54:10;;;;;;;8.23;5.83;;;2.70;70.60;;;4.75;51.37;98826.50;5068548;28;20044;-66
2024/01/29 00:56:38;;;;;;;9.87;6.17;;;2.70;71.00;;;4.72;51.48;98822.25;5070553;28;20047;-66
2024/01/29 00:59:06;;;;;;;9.67;5.97;;;2.70;71.20;;;4.70;52.11;98821.50;5068765;28;20045;-66
2024/01/29 01:01:33;;;;;;;11.17;6.60;;;2.70;71.20;;;4.71;51.57;98833.75;5070362;28;20110;-66
2024/01/29 01:04:01;;;;;;;8.57;5.67;;;2.70;71.20;;;4.69;51.93;98824.22;5070235;28;20040;-66
2024/01/29 01:06:29;;;;;;;8.97;4.90;;;2.60;71.20;;;4.68;51.38;98826.03;5070329;28;20349;-66
2024/01/29 01:08:56;;;;;;;7.97;4.43;;;2.70;71.50;;;4.68;52.07;98815.47;5070496;28;20055;-66
2024/01/29 01:11:24;;;;;;;7.60;5.33;;;2.70;71.00;;;4.66;51.94;98817.38;5070577;28;20044;-66
2024/01/29 01:13:53;;;;;;;7.10;5.80;;;2.70;71.30;;;4.64;51.79;98815.78;5070237;28;20065;-66
2024/01/29 01:16:21;;;;;;;8.23;5.10;;;2.60;70.80;;;4.65;52.04;98812.19;5070022;28;20045;-66
2024/01/29 01:18:49;;;;;;;5.83;5.20;;;2.70;70.70;;;4.66;51.56;98821.81;5070343;28;20044;-65
2024/01/29 01:21:17;;;;;;;16.00;8.30;;;2.70;70.40;;;4.60;51.95;98823.03;5070199;28;20060;-66
2024/01/29 01:23:44;;;;;;;10.77;5.30;;;2.60;70.60;;;4.61;52.22;98827.34;5069674;28;20045;-65
2024/01/29 01:26:12;;;;;;;11.00;5.40;;;2.70;70.50;;;4.59;51.75;98818.69;5069616;28;20048;-66
2024/01/29 01:28:40;;;;;;;9.70;6.20;;;2.60;70.50;;;4.61;51.96;98826.50;5073940;28;20049;-66
2024/01/29 01:31:08;;;;;;;8.00;5.00;;;2.60;70.60;;;4.59;51.47;98826.59;5073826;28;20052;-66
2024/01/29 01:33:35;;;;;;;10.93;6.17;;;2.60;70.80;;;4.58;52.26;98827.53;5072517;28;20039;-65
2024/01/29 01:36:03;;;;;;;12.87;7.63;;;2.60;70.60;;;4.59;52.25;98821.31;5073801;28;20229;-66
2024/01/29 01:38:31;;;;;;;12.17;7.20;;;2.60;70.80;;;4.61;51.95;98827.34;5065846;28;20483;-66
2024/01/29 01:40:59;;;;;;;13.90;7.47;;;2.70;70.60;;;4.62;52.06;98822.94;5055769;28;20420;-66
2024/01/29 01:43:26;;;;;;;10.53;6.80;;;2.70;70.40;;;4.62;51.81;98821.13;5073274;28;20052;-66
2024/01/29 01:46:03;;;;;;;14.07;6.70;;;2.70;70.00;;;4.63;51.83;98821.97;5069737;28;20045;-65
2024/01/29 01:48:33;;;;;;;11.90;7.27;;;2.70;70.20;;;4.62;52.43;98820.28;5073795;28;20542;-66
2024/01/29 01:51:04;;;;;;;11.90;7.50;;;2.70;70.10;;;4.62;52.27;98830.84;5071939;28;20048;-66
2024/01/29 01:53:34;;;;;;;12.93;7.63;;;2.70;70.20;;;4.61;52.34;98819.44;5073307;28;20036;-66
2024/01/29 01:56:03;;;;;;;16.23;8.57;;;2.70;70.40;;;4.60;51.37;98830.94;5072349;28;20048;-66
2024/01/29 01:58:33;;;;;;;12.73;7.30;;;2.60;69.80;;;4.58;51.93;98818.78;5072359;28;20043;-66
2024/01/29 02:01:01;;;;;;;12.00;7.20;;;2.60;70.50;;;4.58;52.18;98817.00;5072105;28;20400;-67
2024/01/29 02:03:29;;;;;;;14.73;8.77;;;2.60;70.30;;;4.58;51.70;98819.63;5071285;28;20071;-66
2024/01/29 02:05:57;;;;;;;13.47;8.17;;;2.60;70.30;;;4.56;52.18;98821.53;5072047;28;20488;-66
2024/01/29 02:08:25;;;;;;;14.53;7.50;;;2.60;70.30;;;4.55;51.93;98822.44;5072351;28;20052;-65
2024/01/29 02:10:56;;;;;;;14.33;7.73;;;2.60;70.30;;;4.55;51.96;98814.53;5071746;28;20067;-66
2024/01/29 02:13:24;;;;;;;11.37;6.87;;;2.60;70.70;;;4.55;52.11;98822.44;5072930;28;20044;-66
2024/01/29 02:15:52;;;;;;;15.97;7.17;;;2.60;70.50;;;4.56;52.10;98818.03;5073110;28;20044;-66
2024/01/29 02:18:19;;;;;;;11.73;7.17;;;2.60;69.90;;;4.56;52.45;98820.69;5071236;28;20048;-66
2024/01/29 02:20:47;;;;;;;18.00;7.93;;;2.70;70.20;;;4.57;51.65;98819.72;5071709;28;20047;-66
2024/01/29 02:23:15;;;;;;;11.03;6.93;;;2.70;69.80;;;4.57;51.92;98815.28;5072657;28;20068;-66
2024/01/29 02:25:42;;;;;;;13.97;7.00;;;2.70;70.50;;;4.56;52.08;98813.59;5073203;28;20071;-65
2024/01/29 02:28:10;;;;;;;9.80;6.20;;;2.70;70.10;;;4.56;51.57;98813.59;5073185;28;20060;-66
2024/01/29 02:30:38;;;;;;;10.97;6.50;;;2.70;70.50;;;4.56;52.47;98818.88;5065039;28;20420;-66
2024/01/29 02:33:05;;;;;;;12.47;8.03;;;2.60;70.40;;;4.54;52.43;98818.97;5072550;28;20503;-66
2024/01/29 02:35:33;;;;;;;16.53;8.47;;;2.70;70.40;;;4.55;51.65;98814.53;5071400;28;20052;-66
2024/01/29 02:38:01;;;;;;;15.23;7.87;;;2.60;69.90;;;4.56;51.97;98815.41;5071318;28;20033;-66
2024/01/29 02:40:28;;;;;;;11.87;6.73;;;2.70;69.30;;;4.52;52.03;98810.31;5072779;28;20070;-66
2024/01/29 02:42:56;;;;;;;12.50;6.67;;;2.60;69.70;;;4.52;52.58;98812.94;5072276;28;20055;-66
2024/01/29 02:45:24;;;;;;;9.10;5.83;;;2.60;70.30;;;4.52;52.04;98815.59;5072514;28;20056;-66
2024/01/29 02:47:51;;;;;;;9.83;5.13;;;2.60;70.80;;;4.51;52.00;98813.88;5071289;28;20036;-66
2024/01/29 02:50:19;;;;;;;7.63;5.17;;;2.50;70.80;;;4.51;52.15;98816.50;5070447;28;20048;-66
2024/01/29 02:52:47;;;;;;;9.83;5.27;;;2.50;70.50;;;4.51;52.56;98815.66;5072423;28;20408;-66
2024/01/29 02:55:15;;;;;;;9.90;5.87;;;2.60;70.30;;;4.51;52.23;98810.41;5072064;28;20044;-66
2024/01/29 02:57:42;;;;;;;7.77;5.43;;;2.60;70.80;;;4.52;52.34;98810.31;5071159;28;20522;-66
2024/01/29 03:00:10;;;;;;;8.80;5.77;;;2.60;70.80;;;4.54;52.27;98815.50;5072422;28;20055;-66
2024/01/29 03:02:38;;;;;;;7.40;5.60;;;2.60;70.60;;;4.54;52.16;98813.69;5070987;28;20051;-66
2024/01/29 03:05:07;;;;;;;7.23;5.03;;;2.60;70.80;;;4.56;52.64;98804.84;5071769;28;20060;-66
2024/01/29 03:07:35;;;;;;;8.27;5.17;;;2.60;70.80;;;4.56;51.88;98805.69;5072107;28;20079;-66
2024/01/29 03:10:02;;;;;;;8.77;4.80;;;2.60;70.80;;;4.58;51.90;98802.97;5072039;28;20412;-66
2024/01/29 03:12:30;;;;;;;6.00;4.50;;;2.70;70.70;;;4.60;52.06;98807.19;5072052;28;20063;-66
2024/01/29 03:14:58;;;;;;;8.33;4.83;;;2.70;70.30;;;4.60;52.18;98811.63;5071725;28;20389;-66
2024/01/29 03:17:29;;;;;;;6.60;4.43;;;2.70;70.20;;;4.59;52.65;98810.75;5072091;28;20059;-66
2024/01/29 03:19:57;;;;;;;5.27;3.80;;;2.70;69.70;;;4.58;52.36;98814.34;5071981;28;20047;-66
2024/01/29 03:22:25;;;;;;;6.37;4.10;;;2.60;69.60;;;4.53;52.46;98814.63;5071937;28;20123;-66
2024/01/29 03:24:53;;;;;;;7.80;4.73;;;2.50;70.00;;;4.51;52.29;98813.03;5071402;28;20040;-66
2024/01/29 03:27:20;;;;;;;8.33;4.20;;;2.50;70.40;;;4.50;52.43;98811.34;5070032;28;20168;-66
2024/01/29 03:29:48;;;;;;;8.37;4.43;;;2.50;70.10;;;4.48;52.22;98816.72;5071518;28;20045;-66
2024/01/29 03:32:16;;;;;;;6.30;3.80;;;2.50;70.40;;;4.49;52.07;98817.56;5071498;28;20057;-66
2024/01/29 03:34:44;;;;;;;8.33;5.20;;;2.50;71.10;;;4.47;52.17;98814.16;5071022;28;20037;-65
2024/01/29 03:37:12;;;;;;;10.23;6.00;;;2.50;70.40;;;4.48;52.28;98813.25;5070507;28;20515;-65
2024/01/29 03:39:40;;;;;;;9.37;6.63;;;2.50;70.30;;;4.44;52.08;98802.03;5071467;28;20041;-66
2024/01/29 03:42:08;;;;;;;8.63;5.50;;;2.50;70.00;;;4.42;52.80;98814.47;5070245;28;20044;-65
2024/01/29 03:44:36;;;;;;;7.57;4.40;;;2.40;70.00;;;4.41;52.28;98802.19;5070730;28;20052;-65
2024/01/29 03:47:03;;;;;;;10.40;5.80;;;2.40;70.00;;;4.39;52.60;98806.72;5071413;28;20032;-65
2024/01/29 03:49:31;;;;;;;7.50;4.73;;;2.40;70.00;;;4.37;52.27;98805.97;5070081;28;20053;-65
2024/01/29 03:51:59;;;;;;;7.00;4.50;;;2.40;69.90;;;4.34;51.72;98809.66;5071329;28;20044;-65
2024/01/29 03:54:26;;;;;;;7.00;4.43;;;2.30;70.10;;;4.31;51.99;98801.91;5070866;28;20534;-65
2024/01/29 03:56:54;;;;;;;7.23;3.97;;;2.30;70.10;;;4.27;51.79;98807.47;5071087;28;20085;-65
2024/01/29 03:59:22;;;;;;;6.60;4.03;;;2.20;70.30;;;4.25;51.90;98798.81;5071302;28;20044;-65
2024/01/29 04:01:49;;;;;;;6.37;4.37;;;2.20;70.90;;;4.25;52.58;98799.66;5071279;28;20458;-65
2024/01/29 04:04:17;;;;;;;7.03;4.40;;;2.20;71.00;;;4.21;52.00;98799.94;5086533;28;20492;-66
2024/01/29 04:06:46;;;;;;;5.43;3.00;;;2.20;70.70;;;4.18;52.40;98794.84;5062932;28;20063;-65
2024/01/29 04:09:20;;;;;;;4.80;3.20;;;2.10;70.80;;;4.15;52.90;98795.91;5071105;28;20592;-66
2024/01/29 04:11:51;;;;;;;4.53;3.70;;;2.00;71.30;;;4.16;52.61;98794.94;5063181;28;20427;-66
2024/01/29 04:14:21;;;;;;;5.47;3.53;;;2.10;71.50;;;4.17;52.50;98799.28;5070777;28;20056;-66
2024/01/29 04:16:50;;;;;;;5.90;3.47;;;2.20;70.70;;;4.17;52.59;98804.56;5063453;28;20496;-65
2024/01/29 04:19:18;;;;;;;5.03;3.17;;;2.20;70.60;;;4.14;51.98;98800.28;5071420;28;20166;-66
2024/01/29 04:21:46;;;;;;;5.10;3.53;;;2.10;70.30;;;4.13;52.25;98800.41;5062839;28;20036;-66
2024/01/29 04:24:15;;;;;;;7.10;3.63;;;2.10;70.30;;;4.14;52.24;98795.03;5070459;28;20048;-65
2024/01/29 04:26:43;;;;;;;8.90;5.03;;;2.20;70.40;;;4.16;52.23;98797.56;5070188;28;20037;-66
2024/01/29 04:29:11;;;;;;;7.40;4.93;;;2.20;70.00;;;4.16;52.63;98802.00;5070918;28;20055;-65
2024/01/29 04:31:38;;;;;;;9.67;5.87;;;2.20;70.00;;;4.16;52.18;98808.13;5069348;28;20071;-65
2024/01/29 04:34:06;;;;;;;8.47;4.87;;;2.30;69.50;;;4.15;52.14;98814.34;5070392;28;20044;-65
2024/01/29 04:36:34;;;;;;;9.47;4.23;;;2.20;69.50;;;4.14;52.38;98802.94;5052188;28;20051;-65
2024/01/29 04:39:03;;;;;;;5.27;4.17;;;2.20;70.00;;;4.16;52.49;98805.47;5070466;28;20045;-65
2024/01/29 04:41:30;;;;;;;7.30;5.37;;;2.20;70.40;;;4.16;52.52;98816.03;5070545;28;20047;-65
2024/01/29 04:43:58;;;;;;;5.77;4.40;;;2.20;70.10;;;4.17;52.11;98807.19;5070244;28;20496;-65
2024/01/29 04:46:26;;;;;;;7.97;4.50;;;2.20;70.10;;;4.14;52.37;98812.63;5067473;28;20048;-65
2024/01/29 04:48:53;;;;;;;6.97;3.87;;;2.10;70.70;;;4.14;52.72;98816.13;5069935;28;20052;-60
2024/01/29 04:51:21;;;;;;;5.77;3.70;;;2.20;70.90;;;4.16;52.58;98821.28;5069469;28;20044;-60
2024/01/29 04:53:49;;;;;;;9.40;4.43;;;2.20;71.10;;;4.18;52.19;98819.41;5062005;28;20048;-60
2024/01/29 04:56:17;;;;;;;6.17;4.23;;;2.20;70.80;;;4.16;52.39;98821.28;5070448;28;20048;-60
2024/01/29 04:58:45;;;;;;;5.57;4.33;;;2.20;71.20;;;4.16;53.17;98821.28;5070242;28;20052;-60
2024/01/29 05:01:13;;;;;;;6.87;5.03;;;2.10;71.40;;;4.18;52.93;98822.06;5071744;28;20055;-60
2024/01/29 05:03:41;;;;;;;7.80;4.80;;;2.30;71.70;;;4.18;52.83;98811.50;5074154;28;20048;-60
2024/01/29 05:06:09;;;;;;;9.03;5.20;;;2.20;71.00;;;4.16;52.46;98807.28;5073305;28;20047;-61
2024/01/29 05:08:37;;;;;;;7.23;5.27;;;2.10;71.60;;;4.17;53.36;98811.59;5074278;28;20400;-60
2024/01/29 05:11:05;;;;;;;8.30;5.80;;;2.10;72.10;;;4.19;53.22;98822.91;5074391;28;20071;-60
2024/01/29 05:13:33;;;;;;;8.03;5.30;;;2.20;72.10;;;4.21;53.19;98824.53;5072784;28;20044;-60
2024/01/29 05:16:00;;;;;;;7.13;4.97;;;2.20;71.70;;;4.23;53.07;98821.78;5072965;28;20234;-60
2024/01/29 05:18:30;;;;;;;9.83;5.70;;;2.30;71.80;;;4.26;53.48;98816.31;5073892;28;20063;-60
2024/01/29 05:20:57;;;;;;;7.70;5.57;;;2.40;71.70;;;4.30;52.71;98810.78;5074305;28;20040;-60
2024/01/29 05:23:25;;;;;;;9.60;4.83;;;2.50;71.30;;;4.34;53.08;98820.19;5072658;28;20044;-60
2024/01/29 05:25:52;;;;;;;8.70;5.37;;;2.50;70.80;;;4.39;53.12;98822.53;5064084;28;20055;-60
2024/01/29 05:28:21;;;;;;;8.73;5.90;;;2.60;70.60;;;4.42;53.06;98819.75;5074202;28;20068;-60
2024/01/29 05:30:51;;;;;;;9.33;6.10;;;2.60;70.70;;;4.40;52.93;98818.13;5072830;28;20040;-60
2024/01/29 05:33:19;;;;;;;8.30;5.80;;;2.50;70.60;;;4.40;53.08;98815.47;5072346;28;20115;-60
2024/01/29 05:35:56;;;;;;;7.55;5.90;;;2.50;71.30;;;4.38;53.04;98818.22;5073867;28;20056;-59
2024/01/29 05:38:25;;;;;;;9.67;5.37;;;2.50;71.70;;;4.39;53.47;98822.53;5073881;28;20412;-60
2024/01/29 05:40:52;;;;;;;11.67;7.37;;;2.50;71.80;;;4.42;52.72;98818.88;5073844;28;20041;-61
2024/01/29 05:43:20;;;;;;;6.17;5.27;;;2.50;71.50;;;4.43;53.00;98831.13;5073437;28;20052;-60
2024/01/29 05:45:48;;;;;;;11.07;6.43;;;2.50;71.60;;;4.40;52.99;98831.28;5073565;28;20411;-60
2024/01/29 05:48:15;;;;;;;8.27;5.30;;;2.40;71.20;;;4.37;52.66;98832.34;5073759;28;20096;-60
2024/01/29 05:50:43;;;;;;;9.93;5.60;;;2.40;71.70;;;4.37;53.23;98837.63;5071537;28;20527;-60
2024/01/29 05:53:11;;;;;;;8.70;6.00;;;2.40;71.80;;;4.37;52.89;98837.63;5073155;28;20075;-60
2024/01/29 05:55:39;;;;;;;10.33;5.63;;;2.40;71.70;;;4.37;52.95;98837.63;5072427;28;20051;-61
2024/01/29 05:58:07;;;;;;;7.47;5.33;;;2.40;71.70;;;4.36;52.41;98837.69;5073716;28;20036;-60
2024/01/29 06:00:35;;;;;;;6.43;4.80;;;2.40;71.70;;;4.32;52.96;98842.31;5074011;28;20063;-60
2024/01/29 06:03:03;;;;;;;8.50;5.20;;;2.30;71.70;;;4.29;53.36;98840.72;5071927;28;20036;-60
2024/01/29 06:05:31;;;;;;;7.03;5.03;;;2.30;72.00;;;4.27;52.94;98836.47;5073450;28;20424;-61
2024/01/29 06:07:58;;;;;;;8.23;5.17;;;2.20;72.20;;;4.26;53.46;98842.69;5073528;28;20392;-60
2024/01/29 06:10:27;;;;;;;8.60;5.07;;;2.20;72.30;;;4.24;53.16;98845.41;5073553;28;20094;-60
2024/01/29 06:12:54;;;;;;;6.00;3.83;;;2.20;71.70;;;4.22;52.89;98844.66;5072091;28;20041;-61
2024/01/29 06:15:23;;;;;;;6.90;4.73;;;2.20;72.20;;;4.21;53.14;98840.34;5073366;28;20045;-66
2024/01/29 06:17:51;;;;;;;6.57;4.93;;;2.20;71.90;;;4.21;53.00;98848.25;5073296;28;20089;-66
2024/01/29 06:20:19;;;;;;;8.90;4.77;;;2.10;72.20;;;4.20;53.22;98851.81;5071777;28;20049;-64
2024/01/29 06:22:47;;;;;;;8.57;5.17;;;2.20;72.00;;;4.23;53.15;98854.25;5071841;28;20507;-64
2024/01/29 06:25:19;;;;;;;8.20;5.80;;;2.20;71.70;;;4.25;53.03;98849.75;5071142;28;20053;-64
2024/01/29 06:27:47;;;;;;;10.47;6.97;;;2.30;71.50;;;4.25;52.85;98849.75;5071689;28;20074;-65
2024/01/29 06:30:15;;;;;;;10.73;7.27;;;2.30;71.30;;;4.24;52.64;98848.03;5073053;28;20449;-65
2024/01/29 06:32:43;;;;;;;10.73;6.80;;;2.30;72.00;;;4.24;52.64;98852.47;5071702;28;20051;-64
2024/01/29 06:35:11;;;;;;;11.40;7.03;;;2.30;71.70;;;4.21;53.02;98847.41;5072458;28;20048;-64
2024/01/29 06:37:39;;;;;;;12.07;7.60;;;2.20;71.70;;;4.20;53.67;98838.63;5072668;28;20040;-64
2024/01/29 06:40:08;;;;;;;11.70;7.27;;;2.20;72.20;;;4.18;53.10;98845.78;5072702;28;20040;-64
2024/01/29 06:42:36;;;;;;;10.67;8.10;;;2.20;72.20;;;4.20;52.98;98845.69;5072652;28;20047;-64
2024/01/29 06:45:04;;;;;;;11.67;7.43;;;2.20;72.30;;;4.19;53.05;98847.47;5072194;28;20048;-63
2024/01/29 06:47:32;;;;;;;13.10;8.00;;;2.20;72.20;;;4.20;52.82;98845.69;5072461;28;20059;-64
2024/01/29 06:50:00;;;;;;;9.50;6.30;;;2.20;72.20;;;4.18;52.97;98848.41;5063305;28;20051;-62
2024/01/29 06:52:28;;;;;;;9.87;6.33;;;2.20;72.40;;;4.19;52.98;98851.88;5072469;28;20051;-64
2024/01/29 06:54:56;;;;;;;8.53;6.40;;;2.20;72.40;;;4.21;53.76;98861.41;5071973;28;20045;-66
2024/01/29 06:57:24;;;;;;;12.47;7.00;;;2.30;71.90;;;4.22;53.04;98849.09;5072447;28;20041;-64
2024/01/29 06:59:51;;;;;;;9.27;6.77;;;2.30;72.00;;;4.21;53.58;98850.03;5071268;28;20048;-64
2024/01/29 07:02:19;;;;;;;11.37;6.57;;;2.30;71.70;;;4.21;53.55;98852.69;5072612;28;20041;-62
2024/01/29 07:04:46;;;;;;;13.50;6.50;;;2.30;72.00;;;4.18;53.92;98851.03;5071849;28;20056;-64
2024/01/29 07:07:14;;;;;;;15.67;7.40;;;2.30;72.20;;;4.19;53.15;98852.75;5072331;28;20067;-63
2024/01/29 07:09:42;;;;;;;15.97;8.37;;;2.30;72.20;;;4.17;53.24;98862.53;5078930;28;20053;-64
2024/01/29 07:12:10;;;;;;;25.40;13.30;;;2.20;72.20;;;4.17;53.31;98864.31;5072293;28;20048;-63
2024/01/29 07:14:37;;;;;;;24.47;12.53;;;2.20;72.30;;;4.17;53.12;98875.72;5071281;28;20423;-63
2024/01/29 07:17:08;;;;;;;25.60;13.60;;;2.20;72.80;;;4.16;53.57;98874.00;5072043;28;20503;-62
2024/01/29 07:19:36;;;;;;;22.73;13.30;;;2.20;72.70;;;4.16;53.37;98871.38;5071965;28;20060;-64
2024/01/29 07:22:04;;;;;;;22.13;13.07;;;2.20;72.80;;;4.16;53.69;98886.34;5062697;28;20412;-64
2024/01/29 07:24:36;;;;;;;26.90;12.03;;;2.10;73.20;;;4.16;53.19;98874.00;5070654;28;20447;-64
2024/01/29 07:27:04;;;;;;;25.47;13.87;;;2.20;72.80;;;4.16;53.75;98875.81;5070935;28;20040;-65
2024/01/29 07:29:32;;;;;;;22.53;12.93;;;2.20;73.00;;;4.16;54.09;98881.09;5070464;28;20100;-64
2024/01/29 07:31:59;;;;;;;24.07;13.73;;;2.20;73.10;;;4.15;53.72;98882.88;5071199;28;20048;-64
2024/01/29 07:34:27;;;;;;;21.83;13.33;;;2.20;73.30;;;4.17;53.72;98875.72;5071227;28;20415;-62
2024/01/29 07:36:55;;;;;;;19.83;12.03;;;2.20;73.70;;;4.19;54.04;98878.25;5070355;28;20511;-64
2024/01/29 07:39:24;;;;;;;14.97;9.43;;;2.30;73.50;;;4.21;53.81;98885.16;5071812;28;20040;-62
2024/01/29 07:41:51;;;;;;;12.87;8.53;;;2.30;73.90;;;4.24;53.74;98887.59;5071673;28;20045;-64
2024/01/29 07:44:19;;;;;;;17.40;9.30;;;2.40;73.10;;;4.27;53.80;98886.56;5069895;28;20048;-65
2024/01/29 07:46:53;;;;;;;12.07;7.17;;;2.40;72.70;;;4.33;53.25;98891.47;5065653;28;20940;-65
2024/01/29 07:49:21;;;;;;;13.90;7.70;;;2.50;72.60;;;4.37;53.88;98898.25;5045800;28;20489;-65
2024/01/29 07:51:49;;;;;;;9.93;7.10;;;2.50;72.50;;;4.42;53.52;98895.34;5047888;28;20489;-65
2024/01/29 07:54:17;;;;;;;11.90;7.13;;;2.60;72.30;;;4.45;53.88;98903.06;5047979;28;20056;-66
2024/01/29 07:56:44;;;;;;;9.23;6.90;;;2.60;72.30;;;4.48;53.96;98901.09;5048176;28;20048;-66
2024/01/29 07:59:12;;;;;;;9.77;7.37;;;2.70;72.10;;;4.55;54.30;98906.84;5042817;28;20381;-66
2024/01/29 08:01:40;;;;;;;9.83;6.20;;;2.70;72.00;;;4.59;53.80;98905.72;5048050;28;20037;-66
2024/01/29 08:04:07;;;;;;;9.67;5.73;;;2.80;71.70;;;4.65;53.94;98904.50;5039716;28;20037;-66
2024/01/29 08:06:35;;;;;;;11.70;6.83;;;2.80;71.50;;;4.70;53.38;98910.34;5047735;28;20052;-66
2024/01/29 08:09:06;;;;;;;10.80;6.43;;;2.90;71.40;;;4.72;53.47;98914.59;5030383;28;20056;-65
2024/01/29 08:11:33;;;;;;;8.73;6.17;;;2.90;71.40;;;4.77;53.53;98916.09;5046499;28;20041;-65
2024/01/29 08:14:01;;;;;;;6.63;5.40;;;3.00;70.90;;;4.81;53.75;98907.03;5046195;28;20515;-65
2024/01/29 08:16:28;;;;;;;8.23;5.70;;;3.00;70.90;;;4.86;54.02;98915.53;5047642;28;20046;-65
2024/01/29 08:18:57;;;;;;;10.17;6.67;;;3.10;71.20;;;4.88;53.35;98911.84;5046925;28;20057;-63
2024/01/29 08:21:25;;;;;;;8.47;5.93;;;3.10;71.20;;;4.92;54.09;98913.38;5047659;28;20049;-63
2024/01/29 08:23:52;;;;;;;13.63;5.87;;;3.20;70.80;;;4.97;54.02;98917.53;5047220;28;20038;-65
2024/01/29 08:26:20;;;;;;;11.53;6.70;;;3.20;70.90;;;4.99;53.42;98919.13;5047386;28;20505;-64
2024/01/29 08:28:48;;;;;;;10.33;6.63;;;3.20;70.90;;;5.02;53.28;98921.59;5046315;28;20056;-64
2024/01/29 08:31:15;;;;;;;10.07;7.53;;;3.30;71.30;;;5.08;54.04;98926.47;5046338;28;20052;-64
2024/01/29 08:33:43;;;;;;;13.03;7.83;;;3.30;71.50;;;5.11;53.72;98931.53;5046082;28;20049;-65
2024/01/29 08:36:11;;;;;;;14.13;7.10;;;3.30;71.50;;;5.15;53.79;98941.94;5047067;28;20037;-65
2024/01/29 08:38:40;;;;;;;11.20;7.60;;;3.40;71.60;;;5.16;53.64;98938.31;5047399;28;20056;-65
2024/01/29 08:41:09;;;;;;;10.13;6.80;;;3.30;71.90;;;5.18;53.60;98944.41;5047292;28;20068;-65
2024/01/29 08:43:36;;;;;;;10.67;6.80;;;3.40;72.00;;;5.20;54.09;98938.06;5047000;28;20409;-64
2024/01/29 08:46:04;;;;;;;11.77;7.87;;;3.40;72.00;;;5.23;53.50;98944.94;5062361;28;20423;-65
2024/01/29 08:48:32;;;;;;;11.67;6.97;;;3.40;72.10;;;5.24;54.09;98947.47;5046043;28;20408;-63
2024/01/29 08:51:00;;;;;;;15.83;7.87;;;3.50;71.90;;;5.26;53.64;98939.47;5045038;28;20050;-63
2024/01/29 08:53:27;;;;;;;10.03;7.57;;;3.50;71.90;;;5.30;53.39;98949.75;5046746;28;20037;-64
2024/01/29 08:55:55;;;;;;;13.13;7.97;;;3.50;71.90;;;5.31;54.24;98942.66;5046741;28;20045;-65
2024/01/29 08:58:24;;;;;;;17.13;10.70;;;3.50;71.80;;;5.35;53.35;98941.53;5033119;28;20045;-63
2024/01/29 09:00:54;;;;;;;13.20;8.20;;;3.50;71.80;;;5.38;53.65;98949.25;5040531;28;20060;-64
2024/01/29 09:03:24;;;;;;;11.33;7.90;;;3.60;71.60;;;5.42;53.86;98949.91;5032148;28;20517;-63
2024/01/29 09:05:52;;;;;;;13.47;7.87;;;3.70;71.60;;;5.45;53.16;98944.44;5033224;28;20044;-63
2024/01/29 09:08:22;;;;;;;10.87;7.00;;;3.70;71.30;;;5.49;53.82;98943.31;5033457;28;20409;-64
2024/01/29 09:10:49;;;;;;;13.87;8.17;;;3.70;71.10;;;5.53;53.81;98958.00;5032212;28;20049;-64
2024/01/29 09:13:17;;;;;;;18.03;8.50;;;3.80;70.90;;;5.56;53.75;98951.69;5030171;28;20045;-64
2024/01/29 09:15:45;;;;;;;18.33;10.70;;;3.80;71.30;;;5.59;53.61;98944.41;5033384;28;20133;-65
2024/01/29 09:18:12;;;;;;;15.10;9.87;;;3.90;72.10;;;5.65;54.03;98948.47;5032932;28;20041;-65
2024/01/29 09:20:40;;;;;;;13.50;9.73;;;3.90;72.20;;;5.67;53.83;98957.13;5032236;28;20041;-64
2024/01/29 09:23:08;;;;;;;12.80;10.53;;;3.90;72.50;;;5.71;53.95;98961.28;5032321;28;20528;-64
2024/01/29 09:25:36;;;;;;;12.80;9.10;;;4.00;72.60;;;5.73;54.30;98957.56;5032933;28;20052;-65
2024/01/29 09:28:04;;;;;;;13.97;9.47;;;4.00;72.90;;;5.78;54.15;98964.34;5032986;28;20041;-64
2024/01/29 09:30:31;;;;;;;14.30;9.07;;;4.00;73.00;;;5.79;54.76;98963.41;5033028;28;20049;-65
2024/01/29 09:33:00;;;;;;;11.10;8.33;;;4.10;73.20;;;5.80;54.88;98968.63;5032763;28;20050;-65
2024/01/29 09:35:44;;;;;;;;;;;4.00;72.90;;;5.83;54.22;98973.69;5033556;28;20045;-64
2024/01/29 09:38:14;;;;;;;11.33;8.00;;;4.10;72.90;;;5.88;53.75;98976.06;5033234;28;19921;-64
2024/01/29 09:40:46;;;;;;;12.80;7.60;;;4.10;72.60;;;5.91;54.35;98973.19;5031890;28;20060;-64
2024/01/29 09:43:20;;;;;;;15.80;7.87;;;4.10;72.70;;;5.94;53.93;98975.66;5032463;28;20049;-64
2024/01/29 09:45:52;;;;;;;15.97;9.37;;;4.20;72.70;;;5.99;54.51;98973.59;5031600;28;20041;-65
2024/01/29 09:48:22;;;;;;;15.03;8.47;;;4.30;72.70;;;6.05;54.22;98972.34;5031866;28;20044;-65
2024/01/29 09:50:50;;;;;;;11.93;8.57;;;4.30;72.90;;;6.07;54.33;98973.09;5031618;28;20049;-65
2024/01/29 09:53:20;;;;;;;11.93;7.77;;;4.40;72.40;;;6.11;54.44;98974.59;5031205;28;20037;-64
2024/01/29 09:55:48;;;;;;;10.90;7.03;;;4.40;72.00;;;6.16;54.14;98966.34;5031120;28;20050;-65
2024/01/29 09:58:16;;;;;;;9.67;7.93;;;4.50;71.80;;;6.21;54.00;98972.19;5031361;28;20048;-65
2024/01/29 10:00:44;;;;;;;12.67;8.23;;;4.50;71.80;;;6.24;54.47;98970.19;5031108;28;20402;-64
2024/01/29 10:03:32;;;;;;;10.37;7.00;;;4.60;71.60;;;6.30;53.74;98975.06;5030832;28;20057;-64
2024/01/29 10:05:59;;;;;;;12.20;7.43;;;4.60;71.30;;;6.35;53.94;98981.84;5032016;28;20056;-66
2024/01/29 10:08:29;;;;;;;15.10;8.93;;;4.70;71.50;;;6.40;53.84;98982.41;5030120;28;20049;-62
2024/01/29 10:10:57;;;;;;;11.80;7.53;;;4.70;71.30;;;6.45;54.05;98991.69;5031048;28;20046;-62
2024/01/29 10:13:25;;;;;;;10.17;7.50;;;4.80;71.20;;;6.50;54.14;98989.59;5030901;28;20060;-63
2024/01/29 10:15:53;;;;;;;9.00;7.00;;;4.80;71.00;;;6.56;54.33;98984.88;5032174;28;20064;-62
2024/01/29 10:18:20;;;;;;;10.60;8.23;;;4.90;71.00;;;6.62;53.94;98995.03;5031686;28;20042;-62
2024/01/29 10:21:04;;;;;;;12.93;7.67;;;5.00;70.50;;;6.68;53.55;98981.38;5026296;28;20257;-62
2024/01/29 10:23:32;;;;;;;10.17;7.63;;;5.10;70.00;;;6.74;53.43;98988.91;5026527;28;20064;-63
2024/01/29 10:26:00;;;;;;;10.37;7.20;;;5.20;69.60;;;6.78;53.88;98986.91;5027849;28;20394;-62
2024/01/29 10:28:28;;;;;;;10.00;6.67;;;5.20;69.40;;;6.84;53.94;98981.19;5029635;28;20395;-62
2024/01/29 10:30:58;;;;;;;13.87;7.70;;;5.30;69.50;;;6.89;53.88;98979.91;5030445;28;20037;-62
2024/01/29 10:33:26;;;;;;;8.33;7.23;;;5.30;69.50;;;6.96;53.91;98977.72;5027398;28;20042;-62
2024/01/29 10:35:57;;;;;;;11.87;7.57;;;5.40;70.40;;;7.01;53.98;98970.28;5030871;28;20094;-62